sensor_id;sensor_type;location;lat;lon;timestamp;P1;durP1;ratioP1;P2;durP2;ratioP2
80159;SDS011;69486;59.082;37.928;2024-03-23T00:53:04;1.42;;;1.00;;
80159;SDS011;69486;59.082;37.928;2024-03-23T00:55:30;1.33;;;1.05;;
80159;SDS011;69486;59.082;37.928;2024-03-23T00:57:55;0.77;;;0.73;;
80159;SDS011;69486;59.082;37.928;2024-03-23T01:00:21;1.25;;;0.80;;
80159;SDS011;69486;59.082;37.928;2024-03-23T01:02:47;1.55;;;1.13;;
80159;SDS011;69486;59.082;37.928;2024-03-23T01:05:13;0.95;;;0.80;;
80159;SDS011;69486;59.082;37.928;2024-03-23T01:07:38;0.70;;;0.70;;
80159;SDS011;69486;59.082;37.928;2024-03-23T01:10:04;3.03;;;1.05;;
80159;SDS011;69486;59.082;37.928;2024-03-23T01:12:30;1.10;;;0.90;;
80159;SDS011;69486;59.082;37.928;2024-03-23T01:14:56;2.25;;;0.82;;
80159;SDS011;69486;59.082;37.928;2024-03-23T01:17:21;1.13;;;0.65;;
80159;SDS011;69486;59.082;37.928;2024-03-23T01:19:47;2.75;;;1.08;;
80159;SDS011;69486;59.082;37.928;2024-03-23T01:22:12;1.83;;;1.00;;
80159;SDS011;69486;59.082;37.928;2024-03-23T01:24:38;4.03;;;1.25;;
80159;SDS011;69486;59.082;37.928;2024-03-23T01:27:04;3.78;;;0.90;;
80159;SDS011;69486;59.082;37.928;2024-03-23T01:29:29;1.40;;;0.95;;
80159;SDS011;69486;59.082;37.928;2024-03-23T01:31:55;1.85;;;0.93;;
80159;SDS011;69486;59.082;37.928;2024-03-23T01:36:46;1.65;;;1.15;;
80159;SDS011;69486;59.082;37.928;2024-03-23T01:39:12;1.83;;;1.73;;
80159;SDS011;69486;59.082;37.928;2024-03-23T01:41:37;2.53;;;1.27;;
80159;SDS011;69486;59.082;37.928;2024-03-23T01:44:07;1.27;;;0.93;;
80159;SDS011;69486;59.082;37.928;2024-03-23T01:46:33;1.17;;;1.00;;
80159;SDS011;69486;59.082;37.928;2024-03-23T01:48:59;2.92;;;1.08;;
80159;SDS011;69486;59.082;37.928;2024-03-23T01:53:50;1.75;;;1.23;;
80159;SDS011;69486;59.082;37.928;2024-03-23T01:56:16;2.50;;;1.00;;
80159;SDS011;69486;59.082;37.928;2024-03-23T01:58:41;1.58;;;0.98;;
80159;SDS011;69486;59.082;37.928;2024-03-23T02:03:32;1.05;;;0.85;;
80159;SDS011;69486;59.082;37.928;2024-03-23T02:08:25;1.75;;;0.82;;
80159;SDS011;69486;59.082;37.928;2024-03-23T02:15:42;5.15;;;1.10;;
80159;SDS011;69486;59.082;37.928;2024-03-23T02:20:33;1.67;;;1.05;;
80159;SDS011;69486;59.082;37.928;2024-03-23T02:25:24;4.72;;;1.02;;
80159;SDS011;69486;59.082;37.928;2024-03-23T02:30:15;1.40;;;1.15;;
80159;SDS011;69486;59.082;37.928;2024-03-23T02:35:06;3.17;;;1.20;;
80159;SDS011;69486;59.082;37.928;2024-03-23T02:37:31;2.35;;;1.25;;
80159;SDS011;69486;59.082;37.928;2024-03-23T02:39:58;1.50;;;1.20;;
80159;SDS011;69486;59.082;37.928;2024-03-23T02:42:23;2.53;;;1.40;;
80159;SDS011;69486;59.082;37.928;2024-03-23T02:47:14;1.10;;;0.80;;
80159;SDS011;69486;59.082;37.928;2024-03-23T02:49:40;1.50;;;1.10;;
80159;SDS011;69486;59.082;37.928;2024-03-23T02:52:05;1.25;;;1.00;;
80159;SDS011;69486;59.082;37.928;2024-03-23T02:54:31;5.55;;;1.75;;
80159;SDS011;69486;59.082;37.928;2024-03-23T02:56:56;4.05;;;2.55;;
80159;SDS011;69486;59.082;37.928;2024-03-23T03:01:47;2.72;;;1.60;;
80159;SDS011;69486;59.082;37.928;2024-03-23T03:06:38;1.45;;;1.23;;
80159;SDS011;69486;59.082;37.928;2024-03-23T03:11:29;2.22;;;1.00;;
80159;SDS011;69486;59.082;37.928;2024-03-23T03:13:55;4.15;;;1.30;;
80159;SDS011;69486;59.082;37.928;2024-03-23T03:18:46;3.10;;;1.48;;
80159;SDS011;69486;59.082;37.928;2024-03-23T03:21:12;1.27;;;1.05;;
80159;SDS011;69486;59.082;37.928;2024-03-23T03:23:38;2.65;;;1.73;;
80159;SDS011;69486;59.082;37.928;2024-03-23T03:28:33;2.65;;;1.05;;
80159;SDS011;69486;59.082;37.928;2024-03-23T03:31:00;2.50;;;1.13;;
80159;SDS011;69486;59.082;37.928;2024-03-23T03:35:50;1.77;;;1.27;;
80159;SDS011;69486;59.082;37.928;2024-03-23T03:38:18;1.35;;;1.25;;
80159;SDS011;69486;59.082;37.928;2024-03-23T03:40:44;2.03;;;1.23;;
80159;SDS011;69486;59.082;37.928;2024-03-23T03:45:35;3.00;;;1.05;;
80159;SDS011;69486;59.082;37.928;2024-03-23T03:48:00;2.33;;;1.42;;
80159;SDS011;69486;59.082;37.928;2024-03-23T03:52:51;4.15;;;1.58;;
80159;SDS011;69486;59.082;37.928;2024-03-23T03:57:42;6.90;;;1.45;;
80159;SDS011;69486;59.082;37.928;2024-03-23T04:00:08;2.47;;;2.17;;
80159;SDS011;69486;59.082;37.928;2024-03-23T04:02:37;2.38;;;1.27;;
80159;SDS011;69486;59.082;37.928;2024-03-23T04:07:28;2.30;;;1.50;;
80159;SDS011;69486;59.082;37.928;2024-03-23T04:12:20;2.58;;;1.60;;
80159;SDS011;69486;59.082;37.928;2024-03-23T04:14:45;2.53;;;1.88;;
80159;SDS011;69486;59.082;37.928;2024-03-23T04:17:11;1.50;;;1.30;;
80159;SDS011;69486;59.082;37.928;2024-03-23T04:22:02;5.30;;;2.40;;
80159;SDS011;69486;59.082;37.928;2024-03-23T04:24:28;2.35;;;2.05;;
80159;SDS011;69486;59.082;37.928;2024-03-23T04:29:19;3.20;;;1.60;;
80159;SDS011;69486;59.082;37.928;2024-03-23T04:31:45;3.83;;;1.52;;
80159;SDS011;69486;59.082;37.928;2024-03-23T04:36:36;3.25;;;1.88;;
80159;SDS011;69486;59.082;37.928;2024-03-23T04:39:02;1.70;;;1.48;;
80159;SDS011;69486;59.082;37.928;2024-03-23T04:43:53;1.40;;;1.10;;
80159;SDS011;69486;59.082;37.928;2024-03-23T04:46:18;2.50;;;1.50;;
80159;SDS011;69486;59.082;37.928;2024-03-23T04:51:10;1.52;;;1.42;;
80159;SDS011;69486;59.082;37.928;2024-03-23T04:53:37;2.20;;;1.58;;
80159;SDS011;69486;59.082;37.928;2024-03-23T05:00:55;4.60;;;1.35;;
80159;SDS011;69486;59.082;37.928;2024-03-23T05:03:21;4.93;;;1.98;;
80159;SDS011;69486;59.082;37.928;2024-03-23T05:08:12;3.10;;;1.65;;
80159;SDS011;69486;59.082;37.928;2024-03-23T05:13:03;2.65;;;1.77;;
80159;SDS011;69486;59.082;37.928;2024-03-23T05:17:55;3.13;;;1.90;;
80159;SDS011;69486;59.082;37.928;2024-03-23T05:22:46;3.72;;;1.73;;
80159;SDS011;69486;59.082;37.928;2024-03-23T05:25:11;2.15;;;1.60;;
80159;SDS011;69486;59.082;37.928;2024-03-23T05:27:37;3.25;;;2.08;;
80159;SDS011;69486;59.082;37.928;2024-03-23T05:30:03;1.88;;;1.35;;
80159;SDS011;69486;59.082;37.928;2024-03-23T05:32:29;2.97;;;1.88;;
80159;SDS011;69486;59.082;37.928;2024-03-23T05:37:23;2.28;;;1.20;;
80159;SDS011;69486;59.082;37.928;2024-03-23T05:42:17;3.22;;;1.38;;
80159;SDS011;69486;59.082;37.928;2024-03-23T05:49:33;1.45;;;1.15;;
80159;SDS011;69486;59.082;37.928;2024-03-23T05:54:27;2.13;;;1.58;;
80159;SDS011;69486;59.082;37.928;2024-03-23T05:59:18;1.55;;;1.15;;
80159;SDS011;69486;59.082;37.928;2024-03-23T06:01:43;3.28;;;1.40;;
80159;SDS011;69486;59.082;37.928;2024-03-23T06:06:35;2.22;;;1.33;;
80159;SDS011;69486;59.082;37.928;2024-03-23T06:09:00;3.05;;;1.58;;
80159;SDS011;69486;59.082;37.928;2024-03-23T06:13:51;2.55;;;1.45;;
80159;SDS011;69486;59.082;37.928;2024-03-23T06:18:48;1.98;;;1.45;;
80159;SDS011;69486;59.082;37.928;2024-03-23T06:23:40;1.23;;;1.05;;
80159;SDS011;69486;59.082;37.928;2024-03-23T06:26:05;2.42;;;1.85;;
80159;SDS011;69486;59.082;37.928;2024-03-23T06:30:56;2.65;;;1.42;;
80159;SDS011;69486;59.082;37.928;2024-03-23T06:33:22;1.58;;;0.88;;
80159;SDS011;69486;59.082;37.928;2024-03-23T06:35:51;1.88;;;1.05;;
80159;SDS011;69486;59.082;37.928;2024-03-23T06:38:17;2.00;;;1.50;;
80159;SDS011;69486;59.082;37.928;2024-03-23T06:43:13;1.25;;;0.90;;
80159;SDS011;69486;59.082;37.928;2024-03-23T06:45:38;1.38;;;1.10;;
80159;SDS011;69486;59.082;37.928;2024-03-23T06:48:06;1.38;;;1.25;;
80159;SDS011;69486;59.082;37.928;2024-03-23T06:50:33;3.10;;;1.60;;
80159;SDS011;69486;59.082;37.928;2024-03-23T06:55:24;1.75;;;1.48;;
80159;SDS011;69486;59.082;37.928;2024-03-23T06:57:52;1.63;;;1.08;;
80159;SDS011;69486;59.082;37.928;2024-03-23T07:02:43;1.92;;;0.85;;
80159;SDS011;69486;59.082;37.928;2024-03-23T07:05:09;1.60;;;1.13;;
80159;SDS011;69486;59.082;37.928;2024-03-23T07:07:37;3.35;;;1.15;;
80159;SDS011;69486;59.082;37.928;2024-03-23T07:10:04;3.70;;;1.35;;
80159;SDS011;69486;59.082;37.928;2024-03-23T07:12:30;1.75;;;1.00;;
80159;SDS011;69486;59.082;37.928;2024-03-23T07:17:21;2.08;;;1.27;;
80159;SDS011;69486;59.082;37.928;2024-03-23T07:19:46;2.25;;;1.40;;
80159;SDS011;69486;59.082;37.928;2024-03-23T07:24:38;0.93;;;0.80;;
80159;SDS011;69486;59.082;37.928;2024-03-23T07:27:04;1.50;;;0.95;;
80159;SDS011;69486;59.082;37.928;2024-03-23T07:31:55;3.50;;;1.50;;
80159;SDS011;69486;59.082;37.928;2024-03-23T07:34:21;1.80;;;1.40;;
80159;SDS011;69486;59.082;37.928;2024-03-23T07:39:12;2.10;;;1.73;;
80159;SDS011;69486;59.082;37.928;2024-03-23T07:44:02;3.83;;;1.35;;
80159;SDS011;69486;59.082;37.928;2024-03-23T07:48:54;2.20;;;1.95;;
80159;SDS011;69486;59.082;37.928;2024-03-23T07:53:45;2.20;;;0.85;;
80159;SDS011;69486;59.082;37.928;2024-03-23T07:56:18;1.52;;;1.30;;
80159;SDS011;69486;59.082;37.928;2024-03-23T07:58:44;5.15;;;1.27;;
80159;SDS011;69486;59.082;37.928;2024-03-23T08:01:13;2.00;;;1.33;;
80159;SDS011;69486;59.082;37.928;2024-03-23T08:03:45;1.85;;;1.20;;
80159;SDS011;69486;59.082;37.928;2024-03-23T08:06:17;2.85;;;1.33;;
80159;SDS011;69486;59.082;37.928;2024-03-23T08:08:46;1.50;;;1.15;;
80159;SDS011;69486;59.082;37.928;2024-03-23T08:11:11;1.05;;;1.00;;
80159;SDS011;69486;59.082;37.928;2024-03-23T08:16:03;2.13;;;1.67;;
80159;SDS011;69486;59.082;37.928;2024-03-23T08:18:28;1.17;;;1.08;;
80159;SDS011;69486;59.082;37.928;2024-03-23T08:21:06;2.65;;;1.20;;
80159;SDS011;69486;59.082;37.928;2024-03-23T08:23:33;2.40;;;1.63;;
80159;SDS011;69486;59.082;37.928;2024-03-23T08:26:12;1.70;;;1.30;;
80159;SDS011;69486;59.082;37.928;2024-03-23T08:28:38;1.65;;;1.10;;
80159;SDS011;69486;59.082;37.928;2024-03-23T08:31:05;1.17;;;1.00;;
80159;SDS011;69486;59.082;37.928;2024-03-23T08:33:31;1.20;;;1.00;;
80159;SDS011;69486;59.082;37.928;2024-03-23T08:38:22;2.03;;;1.40;;
80159;SDS011;69486;59.082;37.928;2024-03-23T08:40:48;0.85;;;0.65;;
80159;SDS011;69486;59.082;37.928;2024-03-23T08:45:39;1.65;;;1.30;;
80159;SDS011;69486;59.082;37.928;2024-03-23T08:48:04;3.38;;;1.95;;
80159;SDS011;69486;59.082;37.928;2024-03-23T08:52:55;1.40;;;1.20;;
80159;SDS011;69486;59.082;37.928;2024-03-23T08:57:46;1.67;;;1.55;;
80159;SDS011;69486;59.082;37.928;2024-03-23T09:00:12;1.80;;;1.48;;
80159;SDS011;69486;59.082;37.928;2024-03-23T09:07:30;1.13;;;0.80;;
80159;SDS011;69486;59.082;37.928;2024-03-23T09:09:56;1.83;;;1.00;;
80159;SDS011;69486;59.082;37.928;2024-03-23T09:14:47;3.53;;;1.10;;
80159;SDS011;69486;59.082;37.928;2024-03-23T09:17:13;1.52;;;0.95;;
80159;SDS011;69486;59.082;37.928;2024-03-23T09:22:04;1.90;;;1.05;;
80159;SDS011;69486;59.082;37.928;2024-03-23T09:24:29;0.60;;;0.60;;
80159;SDS011;69486;59.082;37.928;2024-03-23T09:29:20;0.88;;;0.63;;
80159;SDS011;69486;59.082;37.928;2024-03-23T09:31:45;1.58;;;0.85;;
80159;SDS011;69486;59.082;37.928;2024-03-23T09:34:11;1.50;;;0.70;;
80159;SDS011;69486;59.082;37.928;2024-03-23T09:39:02;0.30;;;0.30;;
80159;SDS011;69486;59.082;37.928;2024-03-23T09:41:29;2.60;;;1.55;;
80159;SDS011;69486;59.082;37.928;2024-03-23T09:46:20;0.93;;;0.82;;
80159;SDS011;69486;59.082;37.928;2024-03-23T09:48:46;1.80;;;0.60;;
80159;SDS011;69486;59.082;37.928;2024-03-23T09:51:12;1.00;;;0.90;;
80159;SDS011;69486;59.082;37.928;2024-03-23T09:56:02;0.82;;;0.70;;
80159;SDS011;69486;59.082;37.928;2024-03-23T09:58:28;1.08;;;0.77;;
80159;SDS011;69486;59.082;37.928;2024-03-23T10:03:19;6.95;;;2.38;;
80159;SDS011;69486;59.082;37.928;2024-03-23T10:05:44;0.95;;;0.70;;
80159;SDS011;69486;59.082;37.928;2024-03-23T10:13:02;1.95;;;0.70;;
80159;SDS011;69486;59.082;37.928;2024-03-23T10:15:27;1.33;;;1.17;;
80159;SDS011;69486;59.082;37.928;2024-03-23T10:20:19;2.25;;;1.45;;
80159;SDS011;69486;59.082;37.928;2024-03-23T10:22:46;1.10;;;0.85;;
80159;SDS011;69486;59.082;37.928;2024-03-23T10:25:12;1.73;;;1.05;;
80159;SDS011;69486;59.082;37.928;2024-03-23T10:27:39;0.50;;;0.47;;
80159;SDS011;69486;59.082;37.928;2024-03-23T10:30:22;0.50;;;0.50;;
80159;SDS011;69486;59.082;37.928;2024-03-23T10:32:52;0.77;;;0.63;;
80159;SDS011;69486;59.082;37.928;2024-03-23T10:35:19;0.80;;;0.50;;
80159;SDS011;69486;59.082;37.928;2024-03-23T10:37:47;0.70;;;0.57;;
80159;SDS011;69486;59.082;37.928;2024-03-23T10:40:15;1.27;;;0.82;;
80159;SDS011;69486;59.082;37.928;2024-03-23T10:42:41;0.68;;;0.60;;
80159;SDS011;69486;59.082;37.928;2024-03-23T10:45:06;0.65;;;0.50;;
80159;SDS011;69486;59.082;37.928;2024-03-23T10:47:34;2.85;;;0.60;;
80159;SDS011;69486;59.082;37.928;2024-03-23T10:49:59;0.68;;;0.57;;
80159;SDS011;69486;59.082;37.928;2024-03-23T10:52:25;0.80;;;0.60;;
80159;SDS011;69486;59.082;37.928;2024-03-23T10:54:51;1.67;;;0.70;;
80159;SDS011;69486;59.082;37.928;2024-03-23T10:57:25;1.27;;;0.75;;
80159;SDS011;69486;59.082;37.928;2024-03-23T10:59:52;1.33;;;0.90;;
80159;SDS011;69486;59.082;37.928;2024-03-23T11:02:19;2.45;;;1.08;;
80159;SDS011;69486;59.082;37.928;2024-03-23T11:04:45;0.80;;;0.70;;
80159;SDS011;69486;59.082;37.928;2024-03-23T11:09:51;0.95;;;0.40;;
80159;SDS011;69486;59.082;37.928;2024-03-23T11:14:57;1.58;;;0.60;;
80159;SDS011;69486;59.082;37.928;2024-03-23T11:17:24;2.38;;;1.08;;
80159;SDS011;69486;59.082;37.928;2024-03-23T11:19:53;1.33;;;0.55;;
80159;SDS011;69486;59.082;37.928;2024-03-23T11:25:02;0.85;;;0.50;;
80159;SDS011;69486;59.082;37.928;2024-03-23T11:27:28;1.60;;;0.70;;
80159;SDS011;69486;59.082;37.928;2024-03-23T11:29:53;0.93;;;0.50;;
80159;SDS011;69486;59.082;37.928;2024-03-23T11:32:19;0.73;;;0.60;;
80159;SDS011;69486;59.082;37.928;2024-03-23T11:34:44;0.60;;;0.60;;
80159;SDS011;69486;59.082;37.928;2024-03-23T11:37:10;0.65;;;0.30;;
80159;SDS011;69486;59.082;37.928;2024-03-23T11:39:35;1.23;;;0.70;;
80159;SDS011;69486;59.082;37.928;2024-03-23T11:42:01;0.73;;;0.40;;
80159;SDS011;69486;59.082;37.928;2024-03-23T11:44:27;0.30;;;0.22;;
80159;SDS011;69486;59.082;37.928;2024-03-23T11:46:52;0.50;;;0.45;;
80159;SDS011;69486;59.082;37.928;2024-03-23T11:49:25;1.05;;;0.70;;
80159;SDS011;69486;59.082;37.928;2024-03-23T11:51:51;1.77;;;0.30;;
80159;SDS011;69486;59.082;37.928;2024-03-23T11:54:22;0.63;;;0.50;;
80159;SDS011;69486;59.082;37.928;2024-03-23T11:56:54;0.35;;;0.35;;
80159;SDS011;69486;59.082;37.928;2024-03-23T11:59:36;0.95;;;0.40;;
80159;SDS011;69486;59.082;37.928;2024-03-23T12:02:09;0.40;;;0.35;;
80159;SDS011;69486;59.082;37.928;2024-03-23T12:04:36;0.43;;;0.30;;
80159;SDS011;69486;59.082;37.928;2024-03-23T12:07:12;1.77;;;0.60;;
80159;SDS011;69486;59.082;37.928;2024-03-23T12:09:37;1.33;;;0.30;;
80159;SDS011;69486;59.082;37.928;2024-03-23T12:12:18;0.85;;;0.50;;
80159;SDS011;69486;59.082;37.928;2024-03-23T12:14:44;0.93;;;0.70;;
80159;SDS011;69486;59.082;37.928;2024-03-23T12:17:13;1.65;;;0.50;;
80159;SDS011;69486;59.082;37.928;2024-03-23T12:19:39;0.60;;;0.52;;
80159;SDS011;69486;59.082;37.928;2024-03-23T12:22:05;1.60;;;0.63;;
80159;SDS011;69486;59.082;37.928;2024-03-23T12:24:32;0.80;;;0.30;;
80159;SDS011;69486;59.082;37.928;2024-03-23T12:27:00;0.73;;;0.50;;
80159;SDS011;69486;59.082;37.928;2024-03-23T12:29:26;0.45;;;0.40;;
80159;SDS011;69486;59.082;37.928;2024-03-23T12:31:51;0.82;;;0.40;;
80159;SDS011;69486;59.082;37.928;2024-03-23T12:34:17;2.20;;;0.60;;
80159;SDS011;69486;59.082;37.928;2024-03-23T12:36:42;0.77;;;0.43;;
80159;SDS011;69486;59.082;37.928;2024-03-23T12:39:08;0.35;;;0.32;;
80159;SDS011;69486;59.082;37.928;2024-03-23T12:41:33;0.95;;;0.45;;
80159;SDS011;69486;59.082;37.928;2024-03-23T12:43:59;0.75;;;0.50;;
80159;SDS011;69486;59.082;37.928;2024-03-23T12:46:24;0.80;;;0.57;;
80159;SDS011;69486;59.082;37.928;2024-03-23T12:48:50;0.60;;;0.50;;
80159;SDS011;69486;59.082;37.928;2024-03-23T12:51:15;1.20;;;0.50;;
80159;SDS011;69486;59.082;37.928;2024-03-23T12:53:41;0.90;;;0.75;;
80159;SDS011;69486;59.082;37.928;2024-03-23T12:56:06;0.68;;;0.50;;
80159;SDS011;69486;59.082;37.928;2024-03-23T12:58:32;0.65;;;0.50;;
80159;SDS011;69486;59.082;37.928;2024-03-23T13:00:58;0.63;;;0.40;;
80159;SDS011;69486;59.082;37.928;2024-03-23T13:03:24;0.70;;;0.50;;
80159;SDS011;69486;59.082;37.928;2024-03-23T13:05:52;1.02;;;0.70;;
80159;SDS011;69486;59.082;37.928;2024-03-23T13:08:19;1.13;;;0.60;;
80159;SDS011;69486;59.082;37.928;2024-03-23T13:10:45;0.75;;;0.50;;
80159;SDS011;69486;59.082;37.928;2024-03-23T13:13:12;1.35;;;0.40;;
80159;SDS011;69486;59.082;37.928;2024-03-23T13:15:37;0.90;;;0.60;;
80159;SDS011;69486;59.082;37.928;2024-03-23T13:18:03;2.08;;;0.98;;
80159;SDS011;69486;59.082;37.928;2024-03-23T13:20:29;1.02;;;0.50;;
80159;SDS011;69486;59.082;37.928;2024-03-23T13:22:54;1.55;;;0.50;;
80159;SDS011;69486;59.082;37.928;2024-03-23T13:25:20;1.17;;;0.50;;
80159;SDS011;69486;59.082;37.928;2024-03-23T13:27:45;0.80;;;0.25;;
80159;SDS011;69486;59.082;37.928;2024-03-23T13:30:11;0.25;;;0.25;;
80159;SDS011;69486;59.082;37.928;2024-03-23T13:32:37;0.38;;;0.30;;
80159;SDS011;69486;59.082;37.928;2024-03-23T13:35:03;0.28;;;0.20;;
80159;SDS011;69486;59.082;37.928;2024-03-23T13:37:28;0.98;;;0.30;;
80159;SDS011;69486;59.082;37.928;2024-03-23T13:39:54;0.35;;;0.30;;
80159;SDS011;69486;59.082;37.928;2024-03-23T13:42:19;0.20;;;0.20;;
80159;SDS011;69486;59.082;37.928;2024-03-23T13:44:45;0.88;;;0.47;;
80159;SDS011;69486;59.082;37.928;2024-03-23T13:47:11;0.40;;;0.20;;
80159;SDS011;69486;59.082;37.928;2024-03-23T13:49:36;0.43;;;0.30;;
80159;SDS011;69486;59.082;37.928;2024-03-23T13:52:02;1.20;;;0.30;;
80159;SDS011;69486;59.082;37.928;2024-03-23T13:54:27;0.40;;;0.40;;
80159;SDS011;69486;59.082;37.928;2024-03-23T13:56:54;0.40;;;0.30;;
80159;SDS011;69486;59.082;37.928;2024-03-23T13:59:22;0.68;;;0.57;;
80159;SDS011;69486;59.082;37.928;2024-03-23T14:01:48;1.13;;;0.90;;
80159;SDS011;69486;59.082;37.928;2024-03-23T14:04:14;0.68;;;0.60;;
80159;SDS011;69486;59.082;37.928;2024-03-23T14:06:42;2.08;;;0.90;;
80159;SDS011;69486;59.082;37.928;2024-03-23T14:09:14;0.47;;;0.43;;
80159;SDS011;69486;59.082;37.928;2024-03-23T14:11:40;0.70;;;0.52;;
80159;SDS011;69486;59.082;37.928;2024-03-23T14:14:08;0.68;;;0.35;;
80159;SDS011;69486;59.082;37.928;2024-03-23T14:16:34;0.20;;;0.20;;
80159;SDS011;69486;59.082;37.928;2024-03-23T14:18:59;1.00;;;0.43;;
80159;SDS011;69486;59.082;37.928;2024-03-23T14:21:25;0.75;;;0.65;;
80159;SDS011;69486;59.082;37.928;2024-03-23T14:23:51;0.68;;;0.50;;
80159;SDS011;69486;59.082;37.928;2024-03-23T14:26:16;0.50;;;0.45;;
80159;SDS011;69486;59.082;37.928;2024-03-23T14:28:42;0.73;;;0.50;;
80159;SDS011;69486;59.082;37.928;2024-03-23T14:31:07;0.25;;;0.25;;
80159;SDS011;69486;59.082;37.928;2024-03-23T14:33:38;0.55;;;0.43;;
80159;SDS011;69486;59.082;37.928;2024-03-23T14:36:07;1.35;;;1.08;;
80159;SDS011;69486;59.082;37.928;2024-03-23T14:38:32;0.40;;;0.25;;
80159;SDS011;69486;59.082;37.928;2024-03-23T14:41:01;0.20;;;0.20;;
80159;SDS011;69486;59.082;37.928;2024-03-23T14:43:28;0.20;;;0.20;;
80159;SDS011;69486;59.082;37.928;2024-03-23T14:48:32;0.22;;;0.10;;
80159;SDS011;69486;59.082;37.928;2024-03-23T14:50:58;0.32;;;0.20;;
80159;SDS011;69486;59.082;37.928;2024-03-23T14:53:24;0.73;;;0.35;;
80159;SDS011;69486;59.082;37.928;2024-03-23T14:55:50;0.63;;;0.40;;
80159;SDS011;69486;59.082;37.928;2024-03-23T14:58:16;0.65;;;0.32;;
80159;SDS011;69486;59.082;37.928;2024-03-23T15:00:41;0.40;;;0.30;;
80159;SDS011;69486;59.082;37.928;2024-03-23T15:03:07;0.73;;;0.38;;
80159;SDS011;69486;59.082;37.928;2024-03-23T15:05:32;0.63;;;0.30;;
80159;SDS011;69486;59.082;37.928;2024-03-23T15:07:58;1.08;;;0.50;;
80159;SDS011;69486;59.082;37.928;2024-03-23T15:10:24;0.30;;;0.30;;
80159;SDS011;69486;59.082;37.928;2024-03-23T15:12:49;0.90;;;0.38;;
80159;SDS011;69486;59.082;37.928;2024-03-23T15:15:15;0.73;;;0.40;;
80159;SDS011;69486;59.082;37.928;2024-03-23T15:17:40;1.63;;;0.63;;
80159;SDS011;69486;59.082;37.928;2024-03-23T15:20:10;0.63;;;0.50;;
80159;SDS011;69486;59.082;37.928;2024-03-23T15:22:38;0.50;;;0.50;;
80159;SDS011;69486;59.082;37.928;2024-03-23T15:25:03;0.70;;;0.35;;
80159;SDS011;69486;59.082;37.928;2024-03-23T15:27:29;0.68;;;0.22;;
80159;SDS011;69486;59.082;37.928;2024-03-23T15:29:57;0.45;;;0.30;;
80159;SDS011;69486;59.082;37.928;2024-03-23T15:32:23;0.65;;;0.55;;
80159;SDS011;69486;59.082;37.928;2024-03-23T15:34:48;0.82;;;0.47;;
80159;SDS011;69486;59.082;37.928;2024-03-23T15:37:14;0.98;;;0.30;;
80159;SDS011;69486;59.082;37.928;2024-03-23T15:39:40;1.17;;;0.52;;
80159;SDS011;69486;59.082;37.928;2024-03-23T15:42:07;0.95;;;0.20;;
80159;SDS011;69486;59.082;37.928;2024-03-23T15:44:32;1.25;;;0.60;;
80159;SDS011;69486;59.082;37.928;2024-03-23T15:46:58;0.60;;;0.45;;
80159;SDS011;69486;59.082;37.928;2024-03-23T15:49:24;1.02;;;0.47;;
80159;SDS011;69486;59.082;37.928;2024-03-23T15:51:49;0.75;;;0.40;;
80159;SDS011;69486;59.082;37.928;2024-03-23T15:54:15;0.20;;;0.20;;
80159;SDS011;69486;59.082;37.928;2024-03-23T15:56:40;0.45;;;0.38;;
80159;SDS011;69486;59.082;37.928;2024-03-23T15:59:06;2.65;;;0.75;;
80159;SDS011;69486;59.082;37.928;2024-03-23T16:01:32;0.52;;;0.40;;
80159;SDS011;69486;59.082;37.928;2024-03-23T16:04:02;1.40;;;0.52;;
80159;SDS011;69486;59.082;37.928;2024-03-23T16:06:27;0.63;;;0.40;;
80159;SDS011;69486;59.082;37.928;2024-03-23T16:08:53;0.73;;;0.32;;
80159;SDS011;69486;59.082;37.928;2024-03-23T16:11:19;0.32;;;0.32;;
80159;SDS011;69486;59.082;37.928;2024-03-23T16:13:45;0.75;;;0.30;;
80159;SDS011;69486;59.082;37.928;2024-03-23T16:16:11;0.82;;;0.47;;
80159;SDS011;69486;59.082;37.928;2024-03-23T16:18:38;0.95;;;0.63;;
80159;SDS011;69486;59.082;37.928;2024-03-23T16:21:06;1.17;;;0.70;;
80159;SDS011;69486;59.082;37.928;2024-03-23T16:23:32;0.30;;;0.30;;
80159;SDS011;69486;59.082;37.928;2024-03-23T16:25:58;1.17;;;0.22;;
80159;SDS011;69486;59.082;37.928;2024-03-23T16:28:36;0.30;;;0.30;;
80159;SDS011;69486;59.082;37.928;2024-03-23T16:31:05;0.17;;;0.17;;
80159;SDS011;69486;59.082;37.928;2024-03-23T16:33:34;0.30;;;0.30;;
80159;SDS011;69486;59.082;37.928;2024-03-23T16:36:04;0.93;;;0.20;;
80159;SDS011;69486;59.082;37.928;2024-03-23T16:38:33;0.20;;;0.20;;
80159;SDS011;69486;59.082;37.928;2024-03-23T16:43:25;0.20;;;0.17;;
80159;SDS011;69486;59.082;37.928;2024-03-23T16:45:54;1.10;;;0.30;;
80159;SDS011;69486;59.082;37.928;2024-03-23T16:48:21;0.20;;;0.20;;
80159;SDS011;69486;59.082;37.928;2024-03-23T16:50:47;0.28;;;0.20;;
80159;SDS011;69486;59.082;37.928;2024-03-23T16:53:13;0.28;;;0.20;;
80159;SDS011;69486;59.082;37.928;2024-03-23T16:55:38;0.10;;;0.10;;
80159;SDS011;69486;59.082;37.928;2024-03-23T16:58:04;1.13;;;0.73;;
80159;SDS011;69486;59.082;37.928;2024-03-23T17:00:30;0.30;;;0.20;;
80159;SDS011;69486;59.082;37.928;2024-03-23T17:02:55;5.38;;;1.40;;
80159;SDS011;69486;59.082;37.928;2024-03-23T17:05:21;1.20;;;0.65;;
80159;SDS011;69486;59.082;37.928;2024-03-23T17:07:48;0.93;;;0.30;;
80159;SDS011;69486;59.082;37.928;2024-03-23T17:10:14;0.40;;;0.30;;
80159;SDS011;69486;59.082;37.928;2024-03-23T17:12:39;0.10;;;0.10;;
80159;SDS011;69486;59.082;37.928;2024-03-23T17:15:05;0.00;;;0.00;;
80159;SDS011;69486;59.082;37.928;2024-03-23T17:17:31;0.30;;;0.30;;
80159;SDS011;69486;59.082;37.928;2024-03-23T17:20:03;0.80;;;0.20;;
80159;SDS011;69486;59.082;37.928;2024-03-23T17:22:29;0.40;;;0.20;;
80159;SDS011;69486;59.082;37.928;2024-03-23T17:24:55;0.20;;;0.10;;
80159;SDS011;69486;59.082;37.928;2024-03-23T17:27:20;0.30;;;0.20;;
80159;SDS011;69486;59.082;37.928;2024-03-23T17:29:46;0.63;;;0.35;;
80159;SDS011;69486;59.082;37.928;2024-03-23T17:32:12;0.20;;;0.13;;
80159;SDS011;69486;59.082;37.928;2024-03-23T17:34:38;0.10;;;0.08;;
80159;SDS011;69486;59.082;37.928;2024-03-23T17:37:03;0.70;;;0.22;;
80159;SDS011;69486;59.082;37.928;2024-03-23T17:39:32;0.03;;;0.03;;
80159;SDS011;69486;59.082;37.928;2024-03-23T17:41:58;0.30;;;0.20;;
80159;SDS011;69486;59.082;37.928;2024-03-23T17:44:23;1.75;;;0.20;;
80159;SDS011;69486;59.082;37.928;2024-03-23T17:46:49;0.82;;;0.40;;
80159;SDS011;69486;59.082;37.928;2024-03-23T17:49:15;2.15;;;1.10;;
80159;SDS011;69486;59.082;37.928;2024-03-23T17:51:44;0.65;;;0.35;;
80159;SDS011;69486;59.082;37.928;2024-03-23T17:54:10;0.75;;;0.40;;
80159;SDS011;69486;59.082;37.928;2024-03-23T17:56:38;4.28;;;0.40;;
80159;SDS011;69486;59.082;37.928;2024-03-23T17:59:03;0.30;;;0.20;;
80159;SDS011;69486;59.082;37.928;2024-03-23T18:01:29;0.20;;;0.20;;
80159;SDS011;69486;59.082;37.928;2024-03-23T18:03:54;0.52;;;0.13;;
80159;SDS011;69486;59.082;37.928;2024-03-23T18:06:20;0.38;;;0.20;;
80159;SDS011;69486;59.082;37.928;2024-03-23T18:08:48;0.08;;;0.08;;
80159;SDS011;69486;59.082;37.928;2024-03-23T18:11:13;0.10;;;0.10;;
80159;SDS011;69486;59.082;37.928;2024-03-23T18:13:39;0.82;;;0.40;;
80159;SDS011;69486;59.082;37.928;2024-03-23T18:16:05;0.20;;;0.20;;
80159;SDS011;69486;59.082;37.928;2024-03-23T18:18:31;0.15;;;0.15;;
80159;SDS011;69486;59.082;37.928;2024-03-23T18:20:56;0.28;;;0.28;;
80159;SDS011;69486;59.082;37.928;2024-03-23T18:23:25;0.75;;;0.25;;
80159;SDS011;69486;59.082;37.928;2024-03-23T18:25:51;0.43;;;0.20;;